createdAt,value
2022-12-04T00:02:02.378Z,102432.80
2022-12-04T00:04:35.503Z,102437.64
2022-12-04T00:07:08.250Z,102430.56
2022-12-04T00:09:40.693Z,102429.66
2022-12-04T00:12:13.233Z,102434.55
2022-12-04T00:15:23.555Z,102432.78
2022-12-04T00:17:19.964Z,102432.77
2022-12-04T00:19:52.804Z,102438.52
2022-12-04T00:22:25.671Z,102436.30
2022-12-04T00:24:58.003Z,102438.52
2022-12-04T00:27:30.616Z,102442.50
2022-12-04T00:30:03.058Z,102437.65
2022-12-04T00:32:36.660Z,102439.84
2022-12-04T00:35:10.088Z,102440.27
2022-12-04T00:37:42.468Z,102439.83
2022-12-04T00:40:15.420Z,102441.16
2022-12-04T00:42:47.927Z,102443.39
2022-12-04T00:45:20.395Z,102448.72
2022-12-04T00:47:53.078Z,102444.27
2022-12-04T00:50:25.520Z,102438.96
2022-12-04T00:52:58.684Z,102442.08
2022-12-04T00:55:31.053Z,102902.62
2022-12-04T00:58:03.490Z,102442.07
2022-12-04T01:00:38.018Z,102448.24
2022-12-04T01:03:11.169Z,102445.16
2022-12-04T01:05:46.015Z,102450.45
2022-12-04T01:08:18.641Z,102448.69
2022-12-04T01:11:05.978Z,102451.34
2022-12-04T01:13:38.551Z,102442.95
2022-12-04T01:16:12.947Z,102442.95
2022-12-04T01:18:45.625Z,102437.18
2022-12-04T01:21:18.818Z,102442.95
2022-12-04T01:23:51.412Z,102441.14
2022-12-04T01:26:23.736Z,102442.03
2022-12-04T01:28:56.290Z,102441.61
2022-12-04T01:31:28.786Z,102444.70
2022-12-04T01:34:01.368Z,102440.73
2022-12-04T01:36:33.910Z,102446.48
2022-12-04T01:39:06.314Z,102437.20
2022-12-04T01:41:38.736Z,102447.36
2022-12-04T01:44:23.251Z,102446.45
2022-12-04T01:46:58.563Z,102449.98
2022-12-04T01:49:44.305Z,102445.58
2022-12-04T01:52:21.553Z,102443.80
2022-12-04T01:55:00.140Z,102441.14
2022-12-04T01:57:33.795Z,102449.10
2022-12-04T02:00:15.883Z,102454.87
2022-12-04T02:02:48.865Z,102449.11
2022-12-04T02:05:22.738Z,102445.61
2022-12-04T02:07:59.045Z,102447.35
2022-12-04T02:10:39.756Z,102449.54
2022-12-04T02:13:28.790Z,102452.59
2022-12-04T02:16:17.758Z,102442.41
2022-12-04T02:18:55.129Z,102434.88
2022-12-04T02:21:45.030Z,102442.83
2022-12-04T02:24:48.285Z,102444.61
2022-12-04T02:27:49.151Z,102449.00
2022-12-04T02:30:22.041Z,102448.55
2022-12-04T02:33:23.631Z,102466.25
2022-12-04T02:36:16.251Z,102471.55
2022-12-04T02:39:26.903Z,102458.72
2022-12-04T02:42:19.053Z,102460.47
2022-12-04T02:47:44.750Z,102456.92
2022-12-04T02:50:21.319Z,102454.73
2022-12-04T02:52:58.010Z,102458.25
2022-12-04T02:55:38.786Z,102458.70
2022-12-04T02:58:25.029Z,102455.14
2022-12-04T03:00:58.646Z,102457.79
2022-12-04T03:03:32.448Z,102464.42
2022-12-04T03:06:09.072Z,102453.39
2022-12-04T03:08:49.007Z,102456.05
2022-12-04T03:11:21.784Z,102460.47
2022-12-04T03:14:02.723Z,102457.37
2022-12-04T03:16:40.071Z,102469.72
2022-12-04T03:19:22.753Z,102455.09
2022-12-04T03:22:05.871Z,102464.83
2022-12-04T03:24:45.017Z,102469.23
2022-12-04T03:27:40.745Z,102465.24
2022-12-04T03:30:16.944Z,102468.80
2022-12-04T03:33:06.512Z,102469.22
2022-12-04T03:36:07.593Z,102454.17
2022-12-04T03:39:08.686Z,102470.95
2022-12-04T03:41:54.863Z,102469.16
2022-12-04T03:44:47.858Z,102478.44
2022-12-04T03:47:24.257Z,102472.67
2022-12-04T03:50:16.683Z,102475.73
2022-12-04T03:53:33.325Z,102477.91
2022-12-04T03:56:19.446Z,102481.86
2022-12-04T03:59:00.089Z,102479.19
2022-12-04T04:01:38.001Z,102487.98
2022-12-04T04:04:14.691Z,102484.02
2022-12-04T04:06:52.179Z,102483.58
2022-12-04T04:09:27.530Z,102478.28
2022-12-04T04:12:09.291Z,102481.37
2022-12-04T04:15:17.693Z,102483.59
2022-12-04T04:18:08.311Z,102486.72
2022-12-04T04:21:05.827Z,102485.42
2022-12-04T04:24:02.226Z,102483.19
2022-12-04T04:26:38.845Z,102485.84
2022-12-04T04:29:12.009Z,102481.89
2022-12-04T04:31:58.048Z,102483.72
2022-12-04T04:34:56.104Z,102488.55
2022-12-04T04:37:33.305Z,102488.09
2022-12-04T04:40:38.232Z,102488.95
2022-12-04T04:43:47.151Z,102508.39
2022-12-04T04:46:26.559Z,102482.69
2022-12-04T04:49:02.416Z,102475.56
2022-12-04T04:51:36.633Z,102487.97
2022-12-04T04:54:11.373Z,102487.97
2022-12-04T04:56:45.319Z,102492.42
2022-12-04T04:59:18.256Z,102491.96
2022-12-04T05:01:50.818Z,102492.88
2022-12-04T05:04:23.992Z,102499.06
2022-12-04T05:06:56.619Z,102501.73
2022-12-04T05:09:29.146Z,102500.86
2022-12-04T05:12:01.588Z,102498.64
2022-12-04T05:14:34.161Z,102503.89
2022-12-04T05:17:12.364Z,102506.12
2022-12-04T05:19:54.519Z,102507.41
2022-12-04T05:22:34.023Z,102500.72
2022-12-04T05:25:07.019Z,102499.38
2022-12-04T05:27:39.691Z,102501.20
2022-12-04T05:30:12.926Z,102496.75
2022-12-04T05:32:45.457Z,102494.98
2022-12-04T05:35:18.659Z,102501.56
2022-12-04T05:37:51.298Z,102507.72
2022-12-04T05:40:23.803Z,102505.98
2022-12-04T05:42:56.232Z,102500.23
2022-12-04T05:45:28.676Z,102505.98
2022-12-04T05:48:00.990Z,102507.27
2022-12-04T05:50:33.945Z,102514.73
2022-12-04T05:53:06.422Z,102509.01
2022-12-04T05:55:39.155Z,102504.61
2022-12-04T05:58:11.715Z,102506.36
2022-12-04T06:00:44.121Z,102511.66
2022-12-04T06:03:16.727Z,102513.45
2022-12-04T06:05:49.305Z,102510.83
2022-12-04T06:08:21.782Z,102514.78
2022-12-04T06:10:54.429Z,102523.20
2022-12-04T06:13:27.080Z,102520.06
2022-12-04T06:15:59.524Z,102522.26
2022-12-04T06:18:32.460Z,102518.70
2022-12-04T06:21:05.037Z,102522.66
2022-12-04T06:23:38.308Z,102520.52
2022-12-04T06:26:10.929Z,102520.96
2022-12-04T06:28:43.515Z,102528.48
2022-12-04T06:31:19.259Z,102535.95
2022-12-04T06:33:51.811Z,102533.75
2022-12-04T06:36:24.657Z,102535.08
2022-12-04T06:38:57.961Z,102536.84
2022-12-04T06:41:30.735Z,102544.81
2022-12-04T06:44:03.209Z,102539.48
2022-12-04T06:46:36.564Z,102547.00
2022-12-04T06:49:10.677Z,102542.59
2022-12-04T06:51:43.728Z,102546.11
2022-12-04T06:54:16.787Z,102552.70
2022-12-04T06:56:50.673Z,102550.48
2022-12-04T06:59:23.094Z,102546.53
2022-12-04T07:01:55.696Z,102547.45
2022-12-04T07:04:28.189Z,102542.60
2022-12-04T07:07:00.616Z,102540.86
2022-12-04T07:09:34.720Z,102542.61
2022-12-04T07:12:07.902Z,102548.34
2022-12-04T07:14:40.763Z,102547.88
2022-12-04T07:17:13.350Z,102536.39
2022-12-04T07:19:45.942Z,102552.29
2022-12-04T07:22:18.676Z,102547.42
2022-12-04T07:24:51.742Z,102549.22
2022-12-04T07:27:24.360Z,102550.11
2022-12-04T07:29:56.971Z,102549.23
2022-12-04T07:32:29.728Z,102558.53
2022-12-04T07:35:02.868Z,102550.96
2022-12-04T07:37:37.493Z,102545.17
2022-12-04T07:40:11.124Z,102558.45
2022-12-04T07:42:43.629Z,102549.17
2022-12-04T07:45:16.003Z,102547.88
2022-12-04T07:47:50.517Z,102547.84
2022-12-04T07:50:23.166Z,102554.91
2022-12-04T07:52:55.727Z,102546.00
2022-12-04T07:55:28.458Z,102546.86
2022-12-04T07:58:01.033Z,102565.41
2022-12-04T08:00:34.550Z,102549.07
2022-12-04T08:03:07.026Z,102556.54
2022-12-04T08:05:39.884Z,102555.71
2022-12-04T08:08:12.704Z,102548.67
2022-12-04T08:10:45.162Z,102541.63
2022-12-04T08:13:17.475Z,102569.00
2022-12-04T08:15:50.008Z,102548.69
2022-12-04T08:18:22.426Z,102547.40
2022-12-04T08:20:55.133Z,102546.55
2022-12-04T08:23:28.832Z,102543.03
2022-12-04T08:26:02.597Z,102548.37
2022-12-04T08:28:35.194Z,102545.75
2022-12-04T08:31:10.891Z,102546.22
2022-12-04T08:33:44.608Z,102547.95
2022-12-04T08:36:19.227Z,102558.13
2022-12-04T08:38:53.564Z,102547.95
2022-12-04T08:41:26.529Z,102544.84
2022-12-04T08:43:59.926Z,102531.59
2022-12-04T08:46:32.596Z,102529.41
2022-12-04T08:49:05.710Z,102538.30
2022-12-04T08:51:39.331Z,102545.41
2022-12-04T08:54:13.809Z,102544.58
2022-12-04T08:56:46.257Z,102547.23
2022-12-04T08:59:19.297Z,102544.16
2022-12-04T09:01:52.714Z,102532.23
2022-12-04T09:04:25.495Z,102533.11
2022-12-04T09:06:58.040Z,102545.45
2022-12-04T09:09:30.938Z,102538.34
2022-12-04T09:12:03.426Z,102539.25
2022-12-04T09:14:36.088Z,102536.61
2022-12-04T09:17:09.444Z,102536.61
2022-12-04T09:19:41.935Z,102541.11
2022-12-04T09:22:14.712Z,102537.67
2022-12-04T09:24:47.784Z,102531.53
2022-12-04T09:27:20.216Z,102535.11
2022-12-04T09:29:52.734Z,102534.22
2022-12-04T09:32:25.310Z,102525.00
2022-12-04T09:34:57.981Z,102524.13
2022-12-04T09:37:30.661Z,102523.69
2022-12-04T09:40:04.008Z,102534.29
2022-12-04T09:43:10.053Z,102530.70
2022-12-04T09:45:52.261Z,102527.56
2022-12-04T09:48:25.638Z,102527.16
2022-12-04T09:50:58.210Z,102517.42
2022-12-04T09:53:35.510Z,102519.20
2022-12-04T09:56:12.917Z,102514.79
2022-12-04T09:59:01.709Z,102517.02
2022-12-04T10:02:01.674Z,102515.67
2022-12-04T10:04:34.577Z,102504.16
2022-12-04T10:07:16.959Z,102501.52
2022-12-04T10:10:05.645Z,102499.77
2022-12-04T10:13:04.487Z,102509.06
2022-12-04T10:16:00.404Z,102502.91
2022-12-04T10:18:53.453Z,102486.61
2022-12-04T10:21:39.512Z,102484.98
2022-12-04T10:24:45.425Z,102478.46
2022-12-04T10:27:43.549Z,102470.87
2022-12-04T10:30:36.999Z,102464.77
2022-12-04T10:33:23.409Z,102468.55
2022-12-04T10:35:56.348Z,102458.71
2022-12-04T10:38:36.984Z,102451.88
2022-12-04T10:41:38.071Z,102447.66
2022-12-04T10:44:16.897Z,102445.67
2022-12-04T10:46:49.380Z,102445.08
2022-12-04T10:49:44.603Z,102438.27
2022-12-04T10:52:17.848Z,102440.88
2022-12-04T10:55:09.581Z,102432.53
2022-12-04T10:57:47.485Z,102428.50
2022-12-04T11:00:36.188Z,102430.13
2022-12-04T11:03:14.158Z,102420.80
2022-12-04T11:05:56.676Z,102412.17
2022-12-04T11:08:42.504Z,102412.95
2022-12-04T11:11:15.235Z,102416.70
2022-12-04T11:13:47.700Z,102421.05
2022-12-04T11:16:43.563Z,102414.09
2022-12-04T11:19:25.661Z,102401.67
2022-12-04T11:22:08.115Z,102399.05
2022-12-04T11:24:43.413Z,102392.97
2022-12-04T11:27:44.287Z,102393.83
2022-12-04T11:30:23.825Z,102391.10
2022-12-04T11:32:57.126Z,102401.30
2022-12-04T11:35:30.554Z,102402.32
2022-12-04T11:38:17.901Z,102400.02
2022-12-04T11:40:56.220Z,102402.77
2022-12-04T11:43:30.682Z,102402.63
2022-12-04T11:46:07.737Z,102409.40
2022-12-04T11:48:46.194Z,102405.82
2022-12-04T11:51:44.620Z,102404.45
2022-12-04T11:54:40.009Z,102399.41
2022-12-04T11:57:38.103Z,102400.94
2022-12-04T12:00:22.934Z,102396.56
2022-12-04T12:03:18.754Z,102396.69
2022-12-04T12:06:21.675Z,102398.98
2022-12-04T12:09:07.998Z,102404.78
2022-12-04T12:11:45.503Z,102402.59
2022-12-04T12:14:28.269Z,102395.95
2022-12-04T12:17:19.776Z,102393.72
2022-12-04T12:20:06.824Z,102399.55
2022-12-04T12:22:56.429Z,102397.77
2022-12-04T12:25:52.109Z,102397.37
2022-12-04T12:28:36.372Z,102395.14
2022-12-04T12:31:54.325Z,102392.48
2022-12-04T12:34:40.596Z,102396.95
2022-12-04T12:37:20.573Z,102399.22
2022-12-04T12:40:00.572Z,102389.50
2022-12-04T12:42:43.646Z,102389.97
2022-12-04T12:45:29.994Z,102386.02
2022-12-04T12:48:22.917Z,102389.16
2022-12-04T12:51:28.416Z,102392.27
2022-12-04T12:53:40.712Z,102395.84
2022-12-04T12:56:13.448Z,102393.63
2022-12-04T12:58:55.390Z,102384.78
2022-12-04T13:01:52.828Z,102389.70
2022-12-04T13:04:45.500Z,102395.03
2022-12-04T13:07:25.484Z,102395.95
2022-12-04T13:10:24.239Z,102401.29
2022-12-04T13:13:02.664Z,102403.98
2022-12-04T13:16:00.250Z,102404.90
2022-12-04T13:18:37.367Z,102398.72
2022-12-04T13:21:09.679Z,102396.50
2022-12-04T13:24:15.871Z,102400.95
2022-12-04T13:27:24.826Z,102408.88
2022-12-04T13:30:22.319Z,102405.73
2022-12-04T13:33:25.572Z,102409.27
2022-12-04T13:36:33.143Z,102412.78
2022-12-04T13:39:35.725Z,102407.46
2022-12-04T13:42:10.301Z,102404.81
2022-12-04T13:44:43.342Z,102399.97
2022-12-04T13:47:16.046Z,102399.54
2022-12-04T13:49:48.365Z,102408.38
2022-12-04T13:52:29.603Z,102402.21
2022-12-04T13:55:02.689Z,102399.98
2022-12-04T13:57:35.848Z,102411.52
2022-12-04T14:00:31.570Z,102403.97
2022-12-04T14:03:10.442Z,102416.37
2022-12-04T14:05:43.683Z,102411.53
2022-12-04T14:08:23.696Z,102405.78
2022-12-04T14:11:08.499Z,102407.12
2022-12-04T14:13:47.417Z,102409.78
2022-12-04T14:16:36.524Z,102408.02
2022-12-04T14:19:08.966Z,102410.22
2022-12-04T14:21:44.772Z,102409.78
2022-12-04T14:24:20.475Z,102405.80
2022-12-04T14:27:11.099Z,102408.45
2022-12-04T14:29:37.732Z,102398.25
2022-12-04T14:32:19.027Z,102407.55
2022-12-04T14:34:51.998Z,102400.91
2022-12-04T14:37:32.144Z,102404.47
2022-12-04T14:40:07.551Z,102399.16
2022-12-04T14:42:40.818Z,102403.61
2022-12-04T14:45:32.695Z,102401.38
2022-12-04T14:48:31.396Z,102400.05
2022-12-04T14:51:20.768Z,102408.03
2022-12-04T14:54:31.358Z,102402.71
2022-12-04T14:57:29.208Z,102409.39
2022-12-04T15:00:01.781Z,102409.81
2022-12-04T15:02:43.179Z,102413.80
2022-12-04T15:05:22.700Z,102401.84
2022-12-04T15:08:01.938Z,102411.14
2022-12-04T15:10:54.127Z,102409.38
2022-12-04T15:13:32.120Z,102411.58
2022-12-04T15:16:21.746Z,102415.55
2022-12-04T15:19:01.521Z,102412.03
2022-12-04T15:21:41.090Z,102421.34
2022-12-04T15:24:22.981Z,102426.66
2022-12-04T15:26:55.451Z,102417.35
2022-12-04T15:29:29.867Z,102407.16
2022-12-04T15:32:06.379Z,102401.83
2022-12-04T15:34:48.471Z,102410.27
2022-12-04T15:37:32.312Z,102404.06
2022-12-04T15:40:11.491Z,102401.41
2022-12-04T15:42:43.879Z,102404.95
2022-12-04T15:45:26.429Z,102407.15
2022-12-04T15:47:58.956Z,102409.80
2022-12-04T15:50:31.721Z,102413.78
2022-12-04T15:53:08.762Z,102412.02
2022-12-04T15:55:50.671Z,102413.34
2022-12-04T15:58:34.178Z,102408.48
2022-12-04T16:01:10.548Z,102414.22
2022-12-04T16:03:52.758Z,102411.13
2022-12-04T16:06:31.110Z,102408.02
2022-12-04T16:09:26.883Z,102402.73
2022-12-04T16:12:06.784Z,102399.16
2022-12-04T16:14:39.649Z,102397.84
2022-12-04T16:17:12.470Z,102400.05
2022-12-04T16:19:44.815Z,102387.64
2022-12-04T16:22:21.178Z,102396.93
2022-12-04T16:24:54.368Z,102387.66
2022-12-04T16:27:27.768Z,102394.72
2022-12-04T16:30:00.926Z,102387.66
2022-12-04T16:32:35.014Z,102390.73
2022-12-04T16:35:08.914Z,102385.42
2022-12-04T16:37:41.986Z,102387.19
2022-12-04T16:40:15.459Z,102396.94
2022-12-04T16:42:48.113Z,102398.25
2022-12-04T16:45:28.063Z,102396.48
2022-12-04T16:48:00.670Z,102395.59
2022-12-04T16:50:33.472Z,102396.02
2022-12-04T16:53:05.985Z,102394.70
2022-12-04T16:55:40.225Z,102397.37
2022-12-04T16:58:11.823Z,102392.52
2022-12-04T17:00:47.661Z,102390.30
2022-12-04T17:03:30.031Z,102381.89
2022-12-04T17:06:02.788Z,102379.23
2022-12-04T17:08:35.881Z,102387.19
2022-12-04T17:11:08.367Z,102381.89
2022-12-04T17:13:40.913Z,102382.73
2022-12-04T17:16:15.198Z,102381.87
2022-12-04T17:18:46.889Z,102382.29
2022-12-04T17:21:19.794Z,102380.94
2022-12-04T17:23:52.350Z,102390.22
2022-12-04T17:26:24.999Z,102388.46
2022-12-04T17:28:57.436Z,102383.15
2022-12-04T17:31:30.152Z,102391.56
2022-12-04T17:34:02.943Z,102391.56
2022-12-04T17:36:35.608Z,102390.66
2022-12-04T17:39:08.407Z,102387.58
2022-12-04T17:41:41.232Z,102384.45
2022-12-04T17:44:14.297Z,102382.27
2022-12-04T17:46:47.227Z,102383.61
2022-12-04T17:49:19.647Z,102388.03
2022-12-04T17:51:52.138Z,102386.27
2022-12-04T17:54:25.763Z,102380.05
2022-12-04T17:56:58.412Z,102378.73
2022-12-04T17:59:30.937Z,102390.67
2022-12-04T18:02:03.476Z,102377.84
2022-12-04T18:04:36.139Z,102382.27
2022-12-04T18:07:08.884Z,102388.00
2022-12-04T18:09:41.800Z,102380.47
2022-12-04T18:12:15.037Z,102386.67
2022-12-04T18:14:47.434Z,102384.45
2022-12-04T18:17:21.013Z,102384.90
2022-12-04T18:19:53.812Z,102386.20
2022-12-04T18:22:27.047Z,102388.86
2022-12-04T18:25:00.805Z,102397.70
2022-12-04T18:27:36.639Z,102390.59
2022-12-04T18:30:10.209Z,102395.45
2022-12-04T18:32:42.720Z,102395.00
2022-12-04T18:35:15.256Z,102391.00
2022-12-04T18:37:47.812Z,102397.62
2022-12-04T18:40:20.411Z,102395.41
2022-12-04T18:42:52.954Z,102389.23
2022-12-04T18:45:26.095Z,102396.27
2022-12-04T18:47:58.665Z,102375.91
2022-12-04T18:50:31.588Z,102391.81
2022-12-04T18:53:04.063Z,102398.89
2022-12-04T18:55:38.364Z,102390.02
2022-12-04T18:58:10.640Z,102390.45
2022-12-04T19:00:43.098Z,102405.48
2022-12-04T19:03:15.890Z,102405.02
2022-12-04T19:05:51.896Z,102405.02
2022-12-04T19:08:28.467Z,102414.73
2022-12-04T19:11:00.780Z,102424.89
2022-12-04T19:13:34.430Z,102423.09
2022-12-04T19:16:08.505Z,102415.59
2022-12-04T19:18:42.407Z,102418.22
2022-12-04T19:21:16.612Z,102447.80
2022-12-04T19:23:56.950Z,102415.08
2022-12-04T19:26:30.680Z,102423.48
2022-12-04T19:29:03.862Z,102423.50
2022-12-04T19:31:37.993Z,102426.56
2022-12-04T19:34:10.780Z,102433.19
2022-12-04T19:36:45.214Z,102433.63
2022-12-04T19:39:17.906Z,102434.08
2022-12-04T19:41:50.213Z,102437.62
2022-12-04T19:46:56.247Z,102434.49
2022-12-04T19:49:28.677Z,102438.45
2022-12-04T19:52:01.379Z,102434.92
2022-12-04T19:54:34.043Z,102431.78
2022-12-04T19:57:09.692Z,102437.95
2022-12-04T19:59:46.229Z,102441.06
2022-12-04T20:02:16.736Z,102447.67
2022-12-04T20:04:49.227Z,102450.28
2022-12-04T20:07:21.691Z,102446.32
2022-12-04T20:09:56.154Z,102451.17
2022-12-04T20:12:29.565Z,102454.30
2022-12-04T20:15:02.333Z,102453.36
2022-12-04T20:17:34.975Z,102462.17
2022-12-04T20:20:09.258Z,102452.43
2022-12-04T20:22:41.925Z,102451.99
2022-12-04T20:25:14.398Z,102457.28
2022-12-04T20:27:48.150Z,102447.53
2022-12-04T20:30:20.894Z,102451.91
2022-12-04T20:32:53.270Z,102442.19
2022-12-04T20:35:25.956Z,102448.75
2022-12-04T20:37:58.501Z,102468.62
2022-12-04T20:40:30.947Z,102451.41
2022-12-04T20:43:03.331Z,102452.73
2022-12-04T20:45:35.896Z,102455.39
2022-12-04T20:48:08.758Z,102466.39
2022-12-04T20:50:42.947Z,102458.41
2022-12-04T20:53:14.787Z,102460.63
2022-12-04T20:55:57.064Z,102459.29
2022-12-04T20:58:29.842Z,102456.21
2022-12-04T21:01:08.538Z,102452.23
2022-12-04T21:03:41.142Z,102447.81
2022-12-04T21:06:29.615Z,102457.95
2022-12-04T21:09:01.760Z,102450.37
2022-12-04T21:11:40.917Z,102456.95
2022-12-04T21:14:40.335Z,102467.13
2022-12-04T21:17:18.737Z,102457.42
2022-12-04T21:19:52.776Z,102449.03
2022-12-04T21:22:25.114Z,102445.08
2022-12-04T21:24:57.719Z,102451.66
2022-12-04T21:27:30.945Z,102451.62
2022-12-04T21:30:04.343Z,102438.33
2022-12-04T21:32:36.995Z,102444.94
2022-12-04T21:35:10.096Z,102444.94
2022-12-04T21:37:42.892Z,102437.48
2022-12-04T21:40:15.876Z,102444.50
2022-12-04T21:42:48.206Z,102438.77
2022-12-04T21:45:20.839Z,102444.05
2022-12-04T21:47:53.546Z,102440.08
2022-12-04T21:50:26.544Z,102435.20
2022-12-04T21:52:58.952Z,102438.29
2022-12-04T21:55:31.376Z,102431.66
2022-12-04T21:58:04.993Z,102433.00
2022-12-04T22:00:38.249Z,102431.20
2022-12-04T22:03:12.561Z,102433.41
2022-12-04T22:05:45.004Z,102423.67
2022-12-04T22:08:17.475Z,102429.38
2022-12-04T22:10:49.946Z,102435.58
2022-12-04T22:13:22.627Z,102427.16
2022-12-04T22:15:55.178Z,102428.91
2022-12-04T22:18:29.139Z,102437.75
2022-12-04T22:21:03.875Z,102432.86
2022-12-04T22:23:36.540Z,102433.73
2022-12-04T22:26:16.023Z,102423.11
2022-12-04T22:28:48.469Z,102427.09
2022-12-04T22:31:23.063Z,102425.73
2022-12-04T22:33:58.139Z,102429.70
2022-12-04T22:36:32.891Z,102426.59
2022-12-04T22:39:09.727Z,102427.91
2022-12-04T22:41:39.847Z,102427.91
2022-12-04T22:44:13.422Z,102425.70
2022-12-04T22:46:46.041Z,102422.14
2022-12-04T22:49:18.615Z,102422.58
2022-12-04T22:51:52.250Z,102420.36
2022-12-04T22:54:24.683Z,102422.58
2022-12-04T22:56:57.245Z,102422.58
2022-12-04T22:59:29.947Z,102422.55
2022-12-04T23:02:02.563Z,102417.22
2022-12-04T23:04:35.304Z,102417.66
2022-12-04T23:07:07.934Z,102413.25
2022-12-04T23:09:40.796Z,102417.63
2022-12-04T23:12:15.188Z,102416.27
2022-12-04T23:14:47.649Z,102415.83
2022-12-04T23:17:20.627Z,102418.91
2022-12-04T23:19:53.651Z,102416.25
2022-12-04T23:22:26.365Z,102422.41
2022-12-04T23:24:59.005Z,102417.08
2022-12-04T23:27:33.417Z,102423.28
2022-12-04T23:30:07.063Z,102418.00
2022-12-04T23:32:39.807Z,102418.88
2022-12-04T23:35:12.443Z,102417.53
2022-12-04T23:37:44.802Z,102416.19
2022-12-04T23:40:17.388Z,102430.25
2022-12-04T23:42:49.899Z,102422.25
2022-12-04T23:45:22.325Z,102418.28
2022-12-04T23:47:56.004Z,102415.64
2022-12-04T23:50:28.176Z,102406.41
2022-12-04T23:53:00.524Z,102408.15
2022-12-04T23:55:34.765Z,102412.48
2022-12-04T23:58:07.843Z,102413.32
